Time;durP1;ratioP1;P1;durP2;ratioP2;P2;SDS_P1;SDS_P2;PMS_P1;PMS_P2;Temp;Humidity;BMP_temperature;BMP_pressure;BME280_temperature;BME280_humidity;BME280_pressure;Samples;Min_cycle;Max_cycle;Signal;HPM_P1;HPM_P2
2024/01/13 00:01:46;;;;;;;6.57;3.83;;;;;;;;;;5049460;28;20025;-65
2024/01/13 00:04:13;;;;;;;9.60;4.27;;;;;;;;;;5050040;28;20037;-66
2024/01/13 00:06:38;;;;;;;9.67;5.23;;;;;;;;;;5032366;28;20087;-67
2024/01/13 00:09:04;;;;;;;9.07;4.50;;;;;;;;;;5029595;28;20018;-67
2024/01/13 00:11:30;;;;;;;11.40;4.20;;;;;;;;;;5029505;28;20175;-66
2024/01/13 00:13:55;;;;;;;12.23;5.30;;;;;;;;;;5028495;28;20033;-71
2024/01/13 00:16:21;;;;;;;11.57;6.10;;;;;;;;;;5030480;28;20053;-68
2024/01/13 00:18:46;;;;;;;10.63;5.13;;;;;;;;;;5028347;28;20022;-66
2024/01/13 00:21:12;;;;;;;8.93;5.70;;;;;;;;;;5042428;28;20453;-71
2024/01/13 00:23:37;;;;;;;12.33;5.13;;;;;;;;;;5046764;28;20120;-67
2024/01/13 00:26:03;;;;;;;8.37;4.87;;;;;;;;;;5049538;28;20037;-66
2024/01/13 00:28:28;;;;;;;9.00;4.77;;;;;;;;;;5048010;28;20385;-66
2024/01/13 00:30:54;;;;;;;11.00;5.47;;;;;;;;;;5049328;28;20392;-67
2024/01/13 00:33:20;;;;;;;8.13;5.00;;;;;;;;;;5046929;28;20473;-67
2024/01/13 00:35:45;;;;;;;8.73;5.30;;;;;;;;;;5048859;28;20032;-69
2024/01/13 00:38:11;;;;;;;10.13;5.07;;;;;;;;;;5049133;28;20024;-66
2024/01/13 00:40:37;;;;;;;7.83;4.60;;;;;;;;;;5047622;28;20480;-66
2024/01/13 00:43:02;;;;;;;10.13;6.53;;;;;;;;;;5048963;28;20104;-66
2024/01/13 00:45:28;;;;;;;7.93;4.53;;;;;;;;;;5048910;28;20373;-67
2024/01/13 00:47:53;;;;;;;6.27;4.00;;;;;;;;;;5043905;28;20028;-69
2024/01/13 00:50:20;;;;;;;9.90;4.63;;;;;;;;;;5027729;28;20560;-67
2024/01/13 00:52:45;;;;;;;9.27;3.93;;;;;;;;;;5028858;28;20105;-67
2024/01/13 00:55:11;;;;;;;9.43;4.77;;;;;;;;;;5028967;28;20146;-67
2024/01/13 00:57:37;;;;;;;10.60;4.90;;;;;;;;;;5030182;28;20503;-67
2024/01/13 01:00:03;;;;;;;10.20;4.80;;;;;;;;;;5014808;28;20041;-69
2024/01/13 01:02:29;;;;;;;12.73;4.33;;;;;;;;;;5039773;28;20104;-68
2024/01/13 01:04:54;;;;;;;8.30;4.47;;;;;;;;;;5052740;28;20313;-67
2024/01/13 01:07:20;;;;;;;6.70;4.20;;;;;;;;;;5051055;28;20042;-68
2024/01/13 01:09:45;;;;;;;8.47;4.60;;;;;;;;;;5052427;28;20032;-68
2024/01/13 01:12:11;;;;;;;5.17;3.67;;;;;;;;;;5052672;28;20021;-67
2024/01/13 01:14:36;;;;;;;8.27;4.20;;;;;;;;;;5052615;28;20380;-69
2024/01/13 01:17:02;;;;;;;8.47;4.03;;;;;;;;;;5052029;28;20028;-69
2024/01/13 01:19:29;;;;;;;8.93;4.00;;;;;;;;;;5053115;28;20029;-68
2024/01/13 01:21:55;;;;;;;11.60;4.50;;;;;;;;;;5052986;28;20053;-67
2024/01/13 01:24:21;;;;;;;7.37;3.63;;;;;;;;;;5051197;28;20499;-68
2024/01/13 01:26:48;;;;;;;9.07;3.97;;;;;;;;;;5051552;28;20055;-67
2024/01/13 01:29:14;;;;;;;6.50;3.80;;;;;;;;;;5053007;28;20048;-67
2024/01/13 01:31:39;;;;;;;5.97;3.63;;;;;;;;;;5041356;28;20489;-67
2024/01/13 01:34:05;;;;;;;8.70;3.87;;;;;;;;;;5031324;28;20159;-67
2024/01/13 01:36:32;;;;;;;8.10;3.90;;;;;;;;;;5033712;28;20032;-68
2024/01/13 01:38:59;;;;;;;8.20;3.70;;;;;;;;;;5033764;28;20493;-69
2024/01/13 01:41:26;;;;;;;6.27;3.93;;;;;;;;;;5033018;28;20047;-69
2024/01/13 01:43:52;;;;;;;5.93;3.57;;;;;;;;;;5031094;28;20477;-67
2024/01/13 01:46:20;;;;;;;5.53;3.80;;;;;;;;;;5044109;28;20708;-67
2024/01/13 01:48:57;;;;;;;6.77;3.23;;;;;;;;;;5050553;28;20079;-68
2024/01/13 01:51:24;;;;;;;4.03;3.03;;;;;;;;;;5034659;28;20417;-67
2024/01/13 01:53:50;;;;;;;7.03;3.20;;;;;;;;;;5051312;28;20535;-68
2024/01/13 01:56:22;;;;;;;8.50;3.83;;;;;;;;;;5050364;28;20048;-66
2024/01/13 01:58:51;;;;;;;6.10;3.13;;;;;;;;;;5049306;28;20141;-67
2024/01/13 02:01:19;;;;;;;7.23;3.30;;;;;;;;;;5052292;28;20017;-67
2024/01/13 02:03:46;;;;;;;4.87;3.20;;;;;;;;;;5050184;28;20044;-69
2024/01/13 02:06:12;;;;;;;6.13;3.40;;;;;;;;;;5050168;28;20468;-67
2024/01/13 02:08:37;;;;;;;4.87;2.80;;;;;;;;;;5049260;28;20055;-69
2024/01/13 02:11:03;;;;;;;6.00;3.10;;;;;;;;;;5049935;28;20056;-67
2024/01/13 02:13:29;;;;;;;6.47;3.13;;;;;;;;;;5049692;28;20032;-67
2024/01/13 02:15:55;;;;;;;5.97;3.00;;;;;;;;;;5049865;28;20076;-67
2024/01/13 02:18:21;;;;;;;5.10;3.17;;;;;;;;;;5050202;28;20380;-67
2024/01/13 02:20:48;;;;;;;6.07;2.57;;;;;;;;;;5051226;28;20053;-67
2024/01/13 02:23:13;;;;;;;7.17;3.13;;;;;;;;;;5051223;28;20077;-67
2024/01/13 02:25:39;;;;;;;4.33;2.70;;;;;;;;;;5049866;28;20041;-66
2024/01/13 02:28:04;;;;;;;5.07;3.00;;;;;;;;;;5050760;28;20025;-67
2024/01/13 02:30:30;;;;;;;3.70;2.33;;;;;;;;;;5051415;28;20083;-67
2024/01/13 02:32:55;;;;;;;6.33;2.90;;;;;;;;;;5049485;28;20025;-66
2024/01/13 02:35:21;;;;;;;5.83;2.80;;;;;;;;;;5051524;28;20025;-67
2024/01/13 02:37:46;;;;;;;3.87;2.40;;;;;;;;;;5050686;28;20029;-67
2024/01/13 02:40:12;;;;;;;4.90;2.93;;;;;;;;;;5050938;28;20056;-68
2024/01/13 02:42:38;;;;;;;4.83;2.93;;;;;;;;;;5035717;28;20064;-66
2024/01/13 02:45:04;;;;;;;6.47;2.60;;;;;;;;;;5030766;28;20053;-67
2024/01/13 02:47:58;;;;;;;3.53;2.47;;;;;;;;;;5029800;28;20026;-66
2024/01/13 02:50:24;;;;;;;3.37;2.57;;;;;;;;;;5027798;28;20036;-68
2024/01/13 02:52:51;;;;;;;5.27;2.77;;;;;;;;;;5050694;28;20074;-68
2024/01/13 02:55:17;;;;;;;4.93;2.80;;;;;;;;;;5050416;28;20052;-68
2024/01/13 02:57:43;;;;;;;6.43;2.33;;;;;;;;;;5048982;28;20025;-69
2024/01/13 03:00:09;;;;;;;4.50;1.97;;;;;;;;;;5050931;28;20025;-67
2024/01/13 03:02:35;;;;;;;2.20;1.77;;;;;;;;;;5046290;28;20040;-68
2024/01/13 03:05:01;;;;;;;4.20;2.37;;;;;;;;;;5030852;28;20025;-67
2024/01/13 03:07:26;;;;;;;3.97;2.10;;;;;;;;;;5029355;28;20030;-67
2024/01/13 03:09:52;;;;;;;3.33;2.10;;;;;;;;;;5039943;28;20491;-67
2024/01/13 03:12:17;;;;;;;3.57;2.27;;;;;;;;;;5049258;28;20033;-67
2024/01/13 03:14:43;;;;;;;2.90;2.20;;;;;;;;;;5048343;28;20040;-68
2024/01/13 03:17:08;;;;;;;2.37;1.80;;;;;;;;;;5048250;28;20469;-66
2024/01/13 03:19:34;;;;;;;3.37;2.33;;;;;;;;;;5049881;28;20032;-66
2024/01/13 03:21:59;;;;;;;4.00;2.20;;;;;;;;;;5049121;28;20024;-66
2024/01/13 03:24:25;;;;;;;4.80;2.50;;;;;;;;;;5050224;28;20418;-67
2024/01/13 03:26:51;;;;;;;5.73;2.70;;;;;;;;;;5050231;28;20031;-66
2024/01/13 03:29:16;;;;;;;3.70;2.23;;;;;;;;;;5048696;28;20088;-67
2024/01/13 03:31:45;;;;;;;5.03;2.60;;;;;;;;;;5044080;28;20029;-68
2024/01/13 03:34:10;;;;;;;4.03;2.70;;;;;;;;;;5043285;28;20468;-68
2024/01/13 03:36:36;;;;;;;6.23;2.70;;;;;;;;;;5051196;28;20032;-67
2024/01/13 03:39:02;;;;;;;2.93;2.63;;;;;;;;;;5051182;28;20040;-67
2024/01/13 03:41:29;;;;;;;3.37;2.27;;;;;;;;;;5048572;28;20111;-68
2024/01/13 03:43:57;;;;;;;4.03;2.67;;;;;;;;;;5049618;28;20025;-67
2024/01/13 03:46:23;;;;;;;4.30;2.27;;;;;;;;;;5048291;28;20518;-67
2024/01/13 03:48:48;;;;;;;4.47;2.67;;;;;;;;;;5048689;28;20021;-67
2024/01/13 03:51:16;;;;;;;4.53;2.97;;;;;;;;;;5049931;28;20037;-68
2024/01/13 03:53:41;;;;;;;3.63;2.50;;;;;;;;;;5051932;28;20099;-67
2024/01/13 03:56:08;;;;;;;3.77;2.40;;;;;;;;;;5051963;28;20087;-67
2024/01/13 03:58:35;;;;;;;5.03;3.03;;;;;;;;;;5053227;28;20388;-68
2024/01/13 04:01:00;;;;;;;3.57;2.77;;;;;;;;;;5051317;28;20032;-67
2024/01/13 04:03:26;;;;;;;4.00;2.50;;;;;;;;;;5055034;28;20033;-67
2024/01/13 04:05:51;;;;;;;4.67;2.97;;;;;;;;;;5050291;28;20439;-68
2024/01/13 04:08:18;;;;;;;5.40;2.73;;;;;;;;;;5049713;28;20415;-66
2024/01/13 04:10:44;;;;;;;5.27;3.07;;;;;;;;;;5048225;28;20029;-68
2024/01/13 04:13:11;;;;;;;4.10;2.37;;;;;;;;;;5048431;28;20106;-66
2024/01/13 04:15:36;;;;;;;4.23;2.10;;;;;;;;;;5030431;28;20033;-67
2024/01/13 04:18:03;;;;;;;4.67;2.60;;;;;;;;;;5029598;28;20076;-67
2024/01/13 04:20:29;;;;;;;4.30;2.13;;;;;;;;;;5029840;28;20039;-68
2024/01/13 04:22:54;;;;;;;3.83;2.40;;;;;;;;;;5028207;28;20037;-68
2024/01/13 04:25:20;;;;;;;5.03;2.57;;;;;;;;;;5028338;28;20039;-66
2024/01/13 04:27:48;;;;;;;5.47;2.53;;;;;;;;;;5028711;28;20113;-68
2024/01/13 04:30:14;;;;;;;4.77;3.27;;;;;;;;;;5049462;28;20665;-67
2024/01/13 04:32:40;;;;;;;4.50;2.63;;;;;;;;;;5052093;28;20036;-68
2024/01/13 04:35:06;;;;;;;5.87;3.10;;;;;;;;;;5051827;28;20126;-67
2024/01/13 04:37:31;;;;;;;3.70;2.63;;;;;;;;;;5052142;28;20456;-67
2024/01/13 04:39:57;;;;;;;4.47;2.50;;;;;;;;;;5051868;28;20021;-67
2024/01/13 04:42:23;;;;;;;5.17;2.80;;;;;;;;;;5051203;28;20024;-67
2024/01/13 04:44:48;;;;;;;5.53;2.93;;;;;;;;;;5040827;28;20029;-66
2024/01/13 04:47:14;;;;;;;3.43;2.60;;;;;;;;;;5051657;28;20040;-66
2024/01/13 04:49:39;;;;;;;3.93;2.33;;;;;;;;;;5033802;28;20032;-67
2024/01/13 04:52:06;;;;;;;4.63;2.80;;;;;;;;;;5031235;28;20040;-67
2024/01/13 04:54:31;;;;;;;2.97;2.23;;;;;;;;;;5031534;28;20639;-67
2024/01/13 04:56:57;;;;;;;3.90;2.83;;;;;;;;;;5039466;28;20021;-67
2024/01/13 04:59:22;;;;;;;4.43;2.80;;;;;;;;;;5051497;28;20121;-66
2024/01/13 05:01:48;;;;;;;3.80;2.80;;;;;;;;;;5053092;28;20029;-67
2024/01/13 05:04:13;;;;;;;4.57;2.77;;;;;;;;;;5052847;28;20451;-67
2024/01/13 05:06:39;;;;;;;4.83;2.60;;;;;;;;;;5051744;28;20029;-67
2024/01/13 05:09:04;;;;;;;6.07;3.00;;;;;;;;;;5053013;28;20464;-68
2024/01/13 05:11:30;;;;;;;5.43;2.80;;;;;;;;;;5043833;28;20033;-68
2024/01/13 05:13:56;;;;;;;4.43;2.70;;;;;;;;;;5032264;28;20029;-68
2024/01/13 05:16:21;;;;;;;5.07;2.53;;;;;;;;;;5031232;28;20025;-66
2024/01/13 05:18:47;;;;;;;5.33;3.00;;;;;;;;;;5031356;28;20071;-68
2024/01/13 05:21:13;;;;;;;4.30;2.60;;;;;;;;;;5032355;28;20392;-67
2024/01/13 05:23:38;;;;;;;4.93;2.67;;;;;;;;;;5032631;28;20056;-67
2024/01/13 05:26:04;;;;;;;6.47;2.77;;;;;;;;;;5041046;28;20044;-67
2024/01/13 05:28:29;;;;;;;3.50;2.43;;;;;;;;;;5052547;28;20032;-68
2024/01/13 05:30:55;;;;;;;4.73;2.90;;;;;;;;;;5051984;28;20473;-67
2024/01/13 05:33:20;;;;;;;5.73;3.07;;;;;;;;;;5052262;28;20330;-67
2024/01/13 05:35:46;;;;;;;5.53;2.60;;;;;;;;;;5052102;28;20266;-67
2024/01/13 05:38:11;;;;;;;5.57;2.63;;;;;;;;;;5052058;28;20040;-67
2024/01/13 05:40:40;;;;;;;3.80;2.90;;;;;;;;;;5039987;28;20448;-68
2024/01/13 05:43:07;;;;;;;6.00;3.63;;;;;;;;;;5030037;28;20025;-66
2024/01/13 05:45:33;;;;;;;8.37;3.37;;;;;;;;;;5030008;28;20071;-66
2024/01/13 05:47:58;;;;;;;5.30;2.83;;;;;;;;;;5030745;28;20410;-67
2024/01/13 05:50:24;;;;;;;8.27;3.37;;;;;;;;;;5030886;28;20024;-67
2024/01/13 05:52:49;;;;;;;5.40;2.83;;;;;;;;;;5033052;28;20024;-66
2024/01/13 05:55:15;;;;;;;4.70;2.77;;;;;;;;;;5048037;28;20415;-68
2024/01/13 05:57:40;;;;;;;5.00;3.50;;;;;;;;;;5050724;28;20028;-68
2024/01/13 06:00:07;;;;;;;5.37;2.77;;;;;;;;;;5052102;28;20056;-68
2024/01/13 06:02:32;;;;;;;6.43;3.57;;;;;;;;;;5050476;28;20017;-68
2024/01/13 06:04:58;;;;;;;4.33;2.73;;;;;;;;;;5050049;28;20036;-68
2024/01/13 06:07:23;;;;;;;5.63;3.40;;;;;;;;;;5050315;28;20431;-66
2024/01/13 06:09:49;;;;;;;4.70;2.63;;;;;;;;;;5030872;28;20120;-68
2024/01/13 06:12:14;;;;;;;4.47;2.93;;;;;;;;;;5013880;28;20500;-65
2024/01/13 06:14:42;;;;;;;4.53;2.87;;;;;;;;;;5030474;28;20037;-66
2024/01/13 06:17:08;;;;;;;4.67;2.70;;;;;;;;;;5030244;28;20021;-66
2024/01/13 06:19:33;;;;;;;6.27;3.13;;;;;;;;;;5030725;28;20499;-68
2024/01/13 06:21:59;;;;;;;4.93;3.13;;;;;;;;;;5032887;28;20067;-68
2024/01/13 06:24:25;;;;;;;4.53;2.63;;;;;;;;;;5050352;28;20033;-66
2024/01/13 06:26:50;;;;;;;5.07;2.90;;;;;;;;;;5050164;28;20052;-68
2024/01/13 06:29:16;;;;;;;4.47;3.03;;;;;;;;;;5051182;28;20380;-67
2024/01/13 06:31:42;;;;;;;9.27;3.83;;;;;;;;;;5049669;28;20033;-69
2024/01/13 06:34:07;;;;;;;6.33;3.50;;;;;;;;;;5049921;28;20191;-68
2024/01/13 06:36:33;;;;;;;8.80;3.10;;;;;;;;;;5049617;28;20025;-68
2024/01/13 06:38:58;;;;;;;5.30;3.20;;;;;;;;;;5050859;28;20032;-68
2024/01/13 06:41:24;;;;;;;6.47;3.23;;;;;;;;;;5037882;28;20121;-67
2024/01/13 06:43:50;;;;;;;4.60;3.07;;;;;;;;;;5031211;28;20026;-68
2024/01/13 06:46:17;;;;;;;4.20;2.57;;;;;;;;;;5029571;28;20017;-67
2024/01/13 06:48:44;;;;;;;4.83;3.07;;;;;;;;;;5029635;28;20025;-67
2024/01/13 06:51:10;;;;;;;4.50;3.00;;;;;;;;;;5042528;28;20352;-67
2024/01/13 06:53:36;;;;;;;3.53;2.63;;;;;;;;;;5050662;28;20029;-69
2024/01/13 06:56:01;;;;;;;3.70;2.77;;;;;;;;;;5049128;28;20041;-68
2024/01/13 06:58:27;;;;;;;4.73;2.67;;;;;;;;;;5049250;28;20025;-67
2024/01/13 07:00:52;;;;;;;5.67;2.97;;;;;;;;;;5050574;28;20094;-70
2024/01/13 07:03:20;;;;;;;6.00;2.97;;;;;;;;;;5048860;28;20496;-68
2024/01/13 07:05:46;;;;;;;5.90;3.00;;;;;;;;;;5035597;28;20044;-68
2024/01/13 07:08:11;;;;;;;4.43;3.20;;;;;;;;;;5030780;28;20025;-66
2024/01/13 07:10:37;;;;;;;6.27;3.00;;;;;;;;;;5029297;28;20029;-68
2024/01/13 07:13:03;;;;;;;3.60;2.20;;;;;;;;;;5029037;28;20075;-68
2024/01/13 07:15:29;;;;;;;4.10;2.97;;;;;;;;;;5028923;28;20432;-68
2024/01/13 07:17:57;;;;;;;5.20;2.70;;;;;;;;;;5029802;28;20033;-67
2024/01/13 07:20:23;;;;;;;2.83;2.00;;;;;;;;;;5046073;28;20061;-68
2024/01/13 07:22:50;;;;;;;6.20;3.03;;;;;;;;;;5050389;28;20091;-67
2024/01/13 07:25:17;;;;;;;4.33;2.73;;;;;;;;;;5050115;28;20031;-69
2024/01/13 07:27:42;;;;;;;4.60;2.87;;;;;;;;;;5049221;28;20207;-67
2024/01/13 07:30:08;;;;;;;4.40;2.53;;;;;;;;;;5051874;28;20052;-67
2024/01/13 07:32:34;;;;;;;3.03;2.20;;;;;;;;;;5050722;28;20060;-68
2024/01/13 07:35:01;;;;;;;4.47;3.20;;;;;;;;;;5030198;28;20109;-67
2024/01/13 07:37:26;;;;;;;4.97;2.50;;;;;;;;;;5012192;28;20465;-68
2024/01/13 07:39:52;;;;;;;4.60;2.93;;;;;;;;;;5028693;28;20037;-68
2024/01/13 07:42:19;;;;;;;4.13;2.47;;;;;;;;;;5028991;28;20145;-68
2024/01/13 07:44:44;;;;;;;5.87;3.17;;;;;;;;;;5031670;28;20073;-69
2024/01/13 07:47:10;;;;;;;4.57;2.90;;;;;;;;;;5038880;28;20048;-70
2024/01/13 07:49:36;;;;;;;6.20;3.10;;;;;;;;;;5051423;28;20090;-68
2024/01/13 07:52:02;;;;;;;5.20;2.80;;;;;;;;;;5050244;28;20040;-70
2024/01/13 07:54:28;;;;;;;3.67;2.20;;;;;;;;;;5049588;28;20046;-68
2024/01/13 07:56:54;;;;;;;5.53;3.17;;;;;;;;;;5049452;28;20076;-69
2024/01/13 07:59:21;;;;;;;4.43;2.57;;;;;;;;;;5050985;28;20053;-71
2024/01/13 08:01:47;;;;;;;4.10;2.63;;;;;;;;;;5050121;28;20115;-68
2024/01/13 08:04:14;;;;;;;4.27;2.30;;;;;;;;;;5053351;28;20110;-68
2024/01/13 08:06:40;;;;;;;4.57;2.97;;;;;;;;;;5054474;28;20033;-67
2024/01/13 08:09:06;;;;;;;3.80;2.13;;;;;;;;;;5052884;28;20033;-71
2024/01/13 08:11:32;;;;;;;3.17;2.33;;;;;;;;;;5049967;28;20052;-68
2024/01/13 08:13:57;;;;;;;4.03;2.33;;;;;;;;;;5049937;28;20056;-68
2024/01/13 08:16:23;;;;;;;6.23;3.27;;;;;;;;;;5039017;28;20433;-68
2024/01/13 08:18:49;;;;;;;5.10;3.07;;;;;;;;;;5028245;28;20430;-67
2024/01/13 08:21:15;;;;;;;4.17;2.77;;;;;;;;;;5029205;28;20489;-69
2024/01/13 08:23:41;;;;;;;3.93;2.60;;;;;;;;;;5030926;28;20079;-71
2024/01/13 08:26:07;;;;;;;3.77;2.37;;;;;;;;;;5030457;28;20036;-70
2024/01/13 08:28:33;;;;;;;3.57;2.67;;;;;;;;;;5028982;28;20029;-70
2024/01/13 08:30:59;;;;;;;4.33;3.07;;;;;;;;;;5012742;28;20133;-67
2024/01/13 08:33:24;;;;;;;4.10;2.60;;;;;;;;;;5030261;28;20365;-70
2024/01/13 08:35:50;;;;;;;3.50;2.60;;;;;;;;;;5030734;28;20022;-72
2024/01/13 08:38:15;;;;;;;5.13;2.70;;;;;;;;;;5030439;28;20075;-70
2024/01/13 08:40:41;;;;;;;4.00;2.73;;;;;;;;;;5030998;28;20079;-69
2024/01/13 08:43:08;;;;;;;3.40;2.43;;;;;;;;;;5030534;28;20060;-72
2024/01/13 08:45:35;;;;;;;3.90;2.37;;;;;;;;;;5031816;28;20120;-73
2024/01/13 08:48:00;;;;;;;4.73;3.13;;;;;;;;;;5013747;28;20397;-73
2024/01/13 08:50:26;;;;;;;6.27;2.50;;;;;;;;;;5030434;28;20037;-74
2024/01/13 08:52:54;;;;;;;3.63;2.63;;;;;;;;;;5031769;28;20430;-73
2024/01/13 08:55:21;;;;;;;5.03;3.13;;;;;;;;;;5013463;28;20056;-76
2024/01/13 08:57:47;;;;;;;6.13;2.97;;;;;;;;;;5029708;28;20034;-71
2024/01/13 09:00:13;;;;;;;5.57;2.53;;;;;;;;;;5030800;28;20037;-72
2024/01/13 09:02:39;;;;;;;9.50;3.87;;;;;;;;;;5029477;28;20043;-72
2024/01/13 09:05:06;;;;;;;4.23;2.57;;;;;;;;;;5031517;28;20071;-70
2024/01/13 09:07:33;;;;;;;3.63;2.90;;;;;;;;;;5030353;28;20025;-72
2024/01/13 09:09:59;;;;;;;3.87;2.80;;;;;;;;;;5013432;28;20026;-72
2024/01/13 09:12:25;;;;;;;3.23;2.23;;;;;;;;;;5031182;28;20381;-71
2024/01/13 09:14:51;;;;;;;5.80;3.27;;;;;;;;;;5030232;28;20116;-70
2024/01/13 09:17:16;;;;;;;5.20;3.20;;;;;;;;;;5012670;28;20035;-73
2024/01/13 09:19:42;;;;;;;5.27;2.90;;;;;;;;;;5032792;28;20055;-71
2024/01/13 09:22:08;;;;;;;9.10;3.07;;;;;;;;;;5034544;28;20025;-71
2024/01/13 09:24:34;;;;;;;6.23;2.90;;;;;;;;;;5033481;28;20061;-71
2024/01/13 09:27:00;;;;;;;5.60;3.60;;;;;;;;;;5036211;28;20056;-70
2024/01/13 09:29:26;;;;;;;5.80;3.87;;;;;;;;;;5053221;28;20024;-73
2024/01/13 09:31:52;;;;;;;5.83;3.40;;;;;;;;;;5052448;28;20033;-71
2024/01/13 09:34:21;;;;;;;4.63;3.43;;;;;;;;;;5053238;28;20032;-72
2024/01/13 09:36:47;;;;;;;4.10;2.87;;;;;;;;;;5055282;28;20024;-72
2024/01/13 09:39:14;;;;;;;6.27;3.43;;;;;;;;;;5054874;28;20330;-70
2024/01/13 09:41:46;;;;;;;5.03;2.87;;;;;;;;;;5052951;28;20025;-73
2024/01/13 09:44:26;;;;;;;3.87;2.70;;;;;;;;;;5053466;28;20044;-72
2024/01/13 09:46:55;;;;;;;6.23;3.77;;;;;;;;;;5053967;28;20025;-71
2024/01/13 09:49:26;;;;;;;6.00;3.17;;;;;;;;;;5054298;28;20038;-69
2024/01/13 09:51:53;;;;;;;4.63;3.07;;;;;;;;;;5050279;28;20090;-71
2024/01/13 09:54:29;;;;;;;5.63;3.37;;;;;;;;;;5052972;28;20056;-71
2024/01/13 09:56:57;;;;;;;8.67;4.20;;;;;;;;;;5043260;28;20516;-70
2024/01/13 09:59:25;;;;;;;9.37;4.50;;;;;;;;;;5034125;28;20032;-70
2024/01/13 10:01:52;;;;;;;4.87;3.37;;;;;;;;;;5032811;28;20083;-71
2024/01/13 10:04:18;;;;;;;7.03;4.13;;;;;;;;;;5033626;28;20087;-70
2024/01/13 10:06:47;;;;;;;7.13;3.80;;;;;;;;;;5033578;28;20037;-72
2024/01/13 10:09:13;;;;;;;5.23;3.50;;;;;;;;;;5033004;28;20068;-73
2024/01/13 10:11:38;;;;;;;7.13;3.77;;;;;;;;;;5049929;28;20028;-71
2024/01/13 10:14:08;;;;;;;6.53;3.30;;;;;;;;;;5053204;28;20068;-70
2024/01/13 10:16:35;;;;;;;5.10;3.57;;;;;;;;;;5052023;28;20039;-71
2024/01/13 10:19:09;;;;;;;9.17;4.77;;;;;;;;;;5052271;28;20037;-71
2024/01/13 10:21:36;;;;;;;7.50;3.40;;;;;;;;;;5052395;28;20037;-70
2024/01/13 10:24:01;;;;;;;8.27;5.13;;;;;;;;;;5052238;28;20020;-71
2024/01/13 10:26:29;;;;;;;5.47;4.00;;;;;;;;;;5016044;28;20128;-70
2024/01/13 10:28:56;;;;;;;4.90;3.50;;;;;;;;;;5032223;28;20033;-71
2024/01/13 10:31:22;;;;;;;13.53;4.07;;;;;;;;;;5031410;28;20087;-71
2024/01/13 10:33:48;;;;;;;5.13;3.33;;;;;;;;;;5032249;28;20440;-69
2024/01/13 10:36:15;;;;;;;6.70;4.10;;;;;;;;;;5031112;28;20033;-70
2024/01/13 10:38:42;;;;;;;7.27;3.97;;;;;;;;;;5037698;28;20162;-71
2024/01/13 10:41:09;;;;;;;8.93;4.10;;;;;;;;;;5053409;28;20025;-70
2024/01/13 10:43:40;;;;;;;6.93;3.27;;;;;;;;;;5068137;28;20041;-70
2024/01/13 10:46:10;;;;;;;7.50;4.37;;;;;;;;;;5053827;28;20044;-72
2024/01/13 10:48:44;;;;;;;4.47;3.47;;;;;;;;;;5051558;28;20114;-71
2024/01/13 10:51:31;;;;;;;6.53;3.77;;;;;;;;;;5052043;28;20066;-70
2024/01/13 10:53:59;;;;;;;6.67;3.43;;;;;;;;;;5052411;28;20059;-70
2024/01/13 10:56:27;;;;;;;7.30;3.53;;;;;;;;;;5051479;28;20037;-71
2024/01/13 10:58:55;;;;;;;6.63;3.40;;;;;;;;;;5052104;28;20021;-72
2024/01/13 11:01:21;;;;;;;9.90;4.27;;;;;;;;;;5050760;28;20156;-72
2024/01/13 11:03:49;;;;;;;6.93;3.60;;;;;;;;;;5051841;28;20476;-71
2024/01/13 11:06:15;;;;;;;7.33;3.23;;;;;;;;;;5033997;28;20036;-69
2024/01/13 11:08:42;;;;;;;6.07;3.30;;;;;;;;;;5036374;28;20025;-71
2024/01/13 11:11:09;;;;;;;4.87;3.20;;;;;;;;;;5030662;28;20119;-70
2024/01/13 11:13:43;;;;;;;4.97;3.60;;;;;;;;;;5032646;28;20080;-72
2024/01/13 11:16:13;;;;;;;4.80;2.57;;;;;;;;;;5030072;28;20481;-69
2024/01/13 11:18:46;;;;;;;3.10;2.43;;;;;;;;;;5030434;28;20041;-72
2024/01/13 11:21:13;;;;;;;6.70;3.10;;;;;;;;;;5032238;28;20037;-72
2024/01/13 11:23:54;;;;;;;4.43;2.70;;;;;;;;;;5053341;28;20060;-71
2024/01/13 11:26:34;;;;;;;3.70;2.53;;;;;;;;;;5052453;28;20029;-70
2024/01/13 11:28:59;;;;;;;6.33;3.67;;;;;;;;;;5052350;28;20543;-70
2024/01/13 11:31:33;;;;;;;9.03;3.13;;;;;;;;;;5051734;28;20031;-71
2024/01/13 11:34:02;;;;;;;8.27;3.20;;;;;;;;;;5051554;28;20500;-71
2024/01/13 11:36:33;;;;;;;4.53;3.10;;;;;;;;;;5043676;28;20036;-72
2024/01/13 11:39:05;;;;;;;10.82;3.72;;;;;;;;;;5031493;28;20071;-71
2024/01/13 11:41:58;;;;;;;3.80;2.03;;;;;;;;;;5030068;28;20037;-72
2024/01/13 11:44:26;;;;;;;3.80;3.10;;;;;;;;;;5031391;28;20052;-72
2024/01/13 11:47:12;;;;;;;4.43;2.27;;;;;;;;;;5031534;28;20381;-70
2024/01/13 11:49:39;;;;;;;3.43;2.27;;;;;;;;;;5034008;28;20104;-70
2024/01/13 11:52:09;;;;;;;5.07;2.83;;;;;;;;;;5052285;28;20484;-71
2024/01/13 11:54:36;;;;;;;4.07;3.13;;;;;;;;;;5051255;28;20073;-69
2024/01/13 11:57:16;;;;;;;4.23;2.90;;;;;;;;;;5051760;28;20485;-71
2024/01/13 11:59:42;;;;;;;3.20;2.90;;;;;;;;;;5048541;28;20223;-71
2024/01/13 12:02:11;;;;;;;11.90;5.20;;;;;;;;;;5051211;28;20074;-71
2024/01/13 12:04:39;;;;;;;5.27;2.80;;;;;;;;;;5043904;28;20077;-67
2024/01/13 12:07:11;;;;;;;3.33;2.53;;;;;;;;;;5031982;28;20037;-70
2024/01/13 12:09:40;;;;;;;5.50;3.07;;;;;;;;;;5032052;28;20071;-72
2024/01/13 12:12:07;;;;;;;5.90;3.33;;;;;;;;;;5031719;28;20516;-71
2024/01/13 12:14:34;;;;;;;4.87;3.23;;;;;;;;;;5034006;28;20029;-71
2024/01/13 12:17:02;;;;;;;8.53;3.87;;;;;;;;;;5033904;28;20108;-73
2024/01/13 12:19:39;;;;;;;6.60;3.00;;;;;;;;;;5031641;28;20112;-72
2024/01/13 12:22:08;;;;;;;4.87;3.43;;;;;;;;;;5032116;28;20030;-72
2024/01/13 12:24:36;;;;;;;5.87;3.43;;;;;;;;;;5030735;28;20038;-72
2024/01/13 12:27:02;;;;;;;7.23;3.80;;;;;;;;;;5032013;28;20060;-71
2024/01/13 12:29:31;;;;;;;9.33;3.50;;;;;;;;;;5030997;28;20045;-72
2024/01/13 12:31:59;;;;;;;6.27;3.13;;;;;;;;;;5030910;28;20029;-70
2024/01/13 12:34:25;;;;;;;6.37;2.97;;;;;;;;;;5045893;28;20037;-70
2024/01/13 12:36:52;;;;;;;4.47;2.80;;;;;;;;;;5051369;28;20083;-70
2024/01/13 12:39:18;;;;;;;5.20;3.53;;;;;;;;;;5051245;28;20060;-72
2024/01/13 12:41:47;;;;;;;7.40;4.00;;;;;;;;;;5051424;28;20051;-70
2024/01/13 12:44:12;;;;;;;5.67;3.30;;;;;;;;;;5049947;28;20065;-70
2024/01/13 12:46:38;;;;;;;7.07;3.77;;;;;;;;;;5051061;28;20029;-71
2024/01/13 12:49:17;;;;;;;3.83;2.47;;;;;;;;;;5049537;28;20283;-71
2024/01/13 12:51:47;;;;;;;5.33;3.13;;;;;;;;;;5049914;28;20166;-71
2024/01/13 12:54:16;;;;;;;4.73;3.20;;;;;;;;;;5052105;28;20225;-72
2024/01/13 12:56:43;;;;;;;9.53;3.43;;;;;;;;;;5055302;28;20361;-72
2024/01/13 12:59:10;;;;;;;8.03;3.80;;;;;;;;;;5054383;28;20035;-69
2024/01/13 13:01:36;;;;;;;7.90;4.00;;;;;;;;;;5048361;28;20420;-70
2024/01/13 13:04:03;;;;;;;6.90;3.93;;;;;;;;;;5034687;28;20504;-70
2024/01/13 13:06:30;;;;;;;7.43;4.23;;;;;;;;;;5033518;28;20036;-71
2024/01/13 13:08:57;;;;;;;5.77;3.73;;;;;;;;;;5032470;28;20070;-69
2024/01/13 13:11:23;;;;;;;5.63;3.33;;;;;;;;;;5033140;28;20029;-72
2024/01/13 13:13:50;;;;;;;5.47;3.40;;;;;;;;;;5033791;28;20063;-70
2024/01/13 13:16:16;;;;;;;10.97;4.87;;;;;;;;;;5046612;28;20059;-71
2024/01/13 13:18:43;;;;;;;7.53;3.87;;;;;;;;;;5055202;28;20025;-72
2024/01/13 13:21:09;;;;;;;6.03;4.00;;;;;;;;;;5055242;28;20024;-73
2024/01/13 13:23:35;;;;;;;9.50;4.57;;;;;;;;;;5054881;28;20033;-73
2024/01/13 13:26:02;;;;;;;6.90;4.10;;;;;;;;;;5053386;28;20028;-69
2024/01/13 13:28:29;;;;;;;8.77;4.53;;;;;;;;;;5054352;28;20515;-71
2024/01/13 13:30:56;;;;;;;11.87;3.90;;;;;;;;;;5054264;28;20028;-71
2024/01/13 13:33:21;;;;;;;8.97;5.17;;;;;;;;;;5036488;28;20056;-71
2024/01/13 13:35:47;;;;;;;6.87;4.17;;;;;;;;;;5054614;28;20033;-72
2024/01/13 13:38:13;;;;;;;7.03;4.27;;;;;;;;;;5053062;28;20086;-71
2024/01/13 13:40:39;;;;;;;7.77;4.53;;;;;;;;;;5054093;28;20043;-72
2024/01/13 13:43:07;;;;;;;10.47;4.70;;;;;;;;;;5053449;28;20040;-72
2024/01/13 13:45:32;;;;;;;9.77;4.60;;;;;;;;;;5052856;28;20025;-71
2024/01/13 13:48:00;;;;;;;9.53;4.17;;;;;;;;;;5052969;28;20156;-73
2024/01/13 13:50:29;;;;;;;10.67;4.47;;;;;;;;;;5052980;28;20025;-72
2024/01/13 13:52:54;;;;;;;9.60;3.93;;;;;;;;;;5052824;28;20029;-70
2024/01/13 13:55:20;;;;;;;9.37;3.87;;;;;;;;;;5052175;28;20052;-70
2024/01/13 13:57:46;;;;;;;7.87;4.60;;;;;;;;;;5053292;28;20028;-71
2024/01/13 14:00:12;;;;;;;8.60;4.97;;;;;;;;;;5054148;28;20025;-71
2024/01/13 14:02:38;;;;;;;10.37;5.27;;;;;;;;;;5052468;28;20028;-73
2024/01/13 14:05:05;;;;;;;7.57;3.93;;;;;;;;;;5051440;28;20388;-70
2024/01/13 14:07:30;;;;;;;10.57;5.03;;;;;;;;;;5053793;28;20081;-71
2024/01/13 14:09:57;;;;;;;8.80;4.60;;;;;;;;;;5052525;28;20129;-69
2024/01/13 14:12:23;;;;;;;9.93;4.93;;;;;;;;;;5046214;28;20044;-74
2024/01/13 14:14:48;;;;;;;9.77;5.33;;;;;;;;;;5033760;28;20115;-71
2024/01/13 14:17:14;;;;;;;11.20;4.97;;;;;;;;;;5032326;28;20392;-73
2024/01/13 14:19:39;;;;;;;12.17;5.40;;;;;;;;;;5031715;28;20519;-71
2024/01/13 14:22:05;;;;;;;11.77;5.17;;;;;;;;;;5033402;28;20021;-72
2024/01/13 14:24:31;;;;;;;7.43;4.57;;;;;;;;;;5032954;28;20033;-70
2024/01/13 14:26:57;;;;;;;8.63;5.37;;;;;;;;;;5032306;28;20049;-71
2024/01/13 14:29:22;;;;;;;7.63;4.40;;;;;;;;;;5032775;28;20083;-72
2024/01/13 14:31:48;;;;;;;9.07;5.10;;;;;;;;;;5033079;28;20488;-73
2024/01/13 14:34:16;;;;;;;10.10;5.40;;;;;;;;;;5031271;28;20025;-71
2024/01/13 14:36:44;;;;;;;11.10;5.30;;;;;;;;;;5030872;28;20388;-72
2024/01/13 14:39:10;;;;;;;11.60;5.27;;;;;;;;;;5030900;28;20034;-71
2024/01/13 14:41:36;;;;;;;8.97;5.50;;;;;;;;;;5030143;28;20064;-72